Lundstrom Heights, Iowa
Current Conditions -  °F | °C
As of 7:15 AM on Thursday 23 Oct 2014 (Local Time) from KIKV Reporting Station
Light Rain Light Rain  
Wind Chill: 52°   Ceiling: 3200
Heat Index: 52°   Visibility: 10mi
Dew Point: 50°   Wind: 7mph
Humidity: 94%   Direction: 180°S
Pressure: 30.04"   Gusts: NA
Location:  41.7257°N, 93.588°W
Report Text: KIKV 231215Z AUTO 18006KT 10SM -RA FEW020 SCT026 BKN032 11/10 A3004 RMK AO2
Loading
Personal Weather Stations






























Interactive Weather Map
Tropical Storm Tracking
New forecast layout! Learn more

10-Day Weather Forecast

Advertisements
Track Severe Weather on mobile